createdAt,value
2022-12-08T00:02:34.593Z,18.98
2022-12-08T00:05:39.636Z,20.05
2022-12-08T00:08:44.040Z,21.25
2022-12-08T00:14:19.490Z,17.95
2022-12-08T00:17:07.686Z,19.60
2022-12-08T00:19:54.847Z,18.90
2022-12-08T00:22:42.028Z,21.17
2022-12-08T00:25:29.380Z,21.60
2022-12-08T00:28:16.791Z,19.85
2022-12-08T00:31:10.293Z,18.60
2022-12-08T00:33:57.882Z,20.42
2022-12-08T00:36:45.466Z,20.85
2022-12-08T00:39:32.458Z,22.20
2022-12-08T00:42:19.803Z,20.85
2022-12-08T00:45:07.702Z,19.48
2022-12-08T00:47:56.442Z,20.08
2022-12-08T00:50:44.039Z,18.95
2022-12-08T00:53:31.878Z,16.38
2022-12-08T00:56:19.096Z,17.38
2022-12-08T00:59:06.862Z,16.35
2022-12-08T01:01:54.181Z,16.35
2022-12-08T01:04:43.029Z,17.70
2022-12-08T01:07:30.007Z,15.45
2022-12-08T01:10:17.300Z,14.70
2022-12-08T01:13:04.576Z,16.05
2022-12-08T01:15:52.416Z,16.52
2022-12-08T01:18:41.555Z,15.57
2022-12-08T01:21:32.685Z,15.05
2022-12-08T01:24:22.920Z,15.07
2022-12-08T01:27:12.582Z,16.60
2022-12-08T01:30:01.377Z,15.18
2022-12-08T01:32:50.854Z,17.65
2022-12-08T01:35:41.261Z,17.15
2022-12-08T01:38:33.173Z,17.17
2022-12-08T01:41:22.773Z,17.08
2022-12-08T01:44:30.151Z,17.17
2022-12-08T01:47:18.650Z,16.27
2022-12-08T01:50:08.446Z,16.17
2022-12-08T01:52:59.002Z,16.02
2022-12-08T01:55:53.579Z,13.80
2022-12-08T01:58:44.869Z,14.18
2022-12-08T02:01:35.065Z,15.30
2022-12-08T02:04:25.123Z,14.13
2022-12-08T02:07:15.806Z,17.75
2022-12-08T02:10:05.753Z,15.95
2022-12-08T02:12:58.350Z,15.25
2022-12-08T02:15:53.333Z,16.77
2022-12-08T02:19:28.548Z,16.15
2022-12-08T02:22:07.376Z,18.45
2022-12-08T02:25:00.912Z,18.17
2022-12-08T02:27:57.880Z,18.55
2022-12-08T02:30:53.591Z,15.95
2022-12-08T02:34:05.368Z,17.05
2022-12-08T02:37:00.104Z,16.95
2022-12-08T02:39:55.290Z,18.95
2022-12-08T02:42:45.718Z,17.83
2022-12-08T02:45:35.127Z,18.75
2022-12-08T02:48:22.259Z,20.77
2022-12-08T02:51:11.102Z,20.13
2022-12-08T02:53:58.354Z,19.00
2022-12-08T02:56:57.406Z,19.35
2022-12-08T02:59:52.561Z,18.60
2022-12-08T03:02:48.979Z,14.95
2022-12-08T03:05:42.323Z,17.08
2022-12-08T03:08:33.832Z,19.02
2022-12-08T03:11:22.967Z,17.50
2022-12-08T03:14:11.803Z,19.25
2022-12-08T03:16:59.413Z,18.88
2022-12-08T03:19:47.492Z,19.80
2022-12-08T03:22:34.753Z,18.42
2022-12-08T03:25:24.612Z,17.20
2022-12-08T03:28:12.819Z,19.30
2022-12-08T03:31:01.241Z,15.40
2022-12-08T03:33:51.204Z,17.45
2022-12-08T03:36:38.628Z,17.48
2022-12-08T03:39:25.871Z,17.45
2022-12-08T03:42:14.719Z,17.60
2022-12-08T03:45:01.960Z,16.65
2022-12-08T03:47:49.166Z,15.98
2022-12-08T03:50:36.531Z,14.00
2022-12-08T03:53:23.842Z,14.52
2022-12-08T03:56:15.796Z,15.43
2022-12-08T03:59:04.442Z,13.23
2022-12-08T04:01:51.455Z,15.27
2022-12-08T04:04:38.428Z,14.95
2022-12-08T04:07:25.915Z,14.38
2022-12-08T04:10:13.283Z,13.43
2022-12-08T04:13:00.595Z,13.32
2022-12-08T04:15:49.941Z,13.80
2022-12-08T04:18:37.212Z,13.80
2022-12-08T04:21:24.447Z,14.25
2022-12-08T04:24:11.780Z,11.75
2022-12-08T04:26:58.964Z,12.65
2022-12-08T04:29:46.202Z,11.98
2022-12-08T04:32:34.875Z,13.70
2022-12-08T04:35:22.231Z,12.15
2022-12-08T04:38:09.307Z,13.02
2022-12-08T04:40:56.480Z,12.50
2022-12-08T04:43:44.631Z,11.73
2022-12-08T04:46:31.705Z,11.35
2022-12-08T04:49:20.112Z,10.55
2022-12-08T04:52:07.364Z,12.30
2022-12-08T04:54:54.644Z,11.52
2022-12-08T04:57:41.891Z,10.68
2022-12-08T05:00:29.090Z,12.18
2022-12-08T05:03:16.718Z,12.30
2022-12-08T05:06:05.915Z,12.98
2022-12-08T05:08:53.033Z,11.10
2022-12-08T05:11:48.391Z,12.88
2022-12-08T05:14:36.335Z,11.13
2022-12-08T05:17:23.436Z,10.77
2022-12-08T05:20:11.514Z,8.90
2022-12-08T05:22:59.843Z,9.38
2022-12-08T05:25:47.071Z,8.32
2022-12-08T05:28:42.953Z,9.30
2022-12-08T05:31:30.779Z,8.18
2022-12-08T05:34:18.146Z,7.93
2022-12-08T05:37:05.494Z,8.60
2022-12-08T05:39:54.044Z,8.18
2022-12-08T05:42:41.227Z,8.50
2022-12-08T05:45:28.745Z,6.97
2022-12-08T05:48:16.073Z,7.78
2022-12-08T05:51:03.306Z,7.63
2022-12-08T05:53:51.218Z,7.30
2022-12-08T05:56:39.960Z,7.85
2022-12-08T05:59:27.395Z,7.85
2022-12-08T06:02:14.695Z,7.68
2022-12-08T06:05:01.940Z,6.95
2022-12-08T06:07:49.172Z,7.15
2022-12-08T06:10:36.208Z,7.15
2022-12-08T06:13:24.776Z,8.93
2022-12-08T06:16:12.148Z,8.20
2022-12-08T06:18:59.381Z,8.23
2022-12-08T06:21:46.601Z,8.10
2022-12-08T06:24:33.808Z,8.43
2022-12-08T06:27:21.148Z,10.88
2022-12-08T06:30:10.419Z,9.73
2022-12-08T06:32:57.532Z,12.32
2022-12-08T06:35:44.777Z,11.85
2022-12-08T06:38:32.196Z,13.73
2022-12-08T06:41:19.770Z,12.95
2022-12-08T06:44:06.915Z,12.07
2022-12-08T06:46:55.698Z,13.68
2022-12-08T06:49:43.007Z,11.63
2022-12-08T06:52:30.230Z,12.60
2022-12-08T06:55:42.421Z,13.50
2022-12-08T06:58:24.780Z,11.35
2022-12-08T07:01:12.709Z,12.45
2022-12-08T07:04:01.182Z,12.38
2022-12-08T07:06:48.325Z,12.57
2022-12-08T07:09:36.757Z,11.88
2022-12-08T07:12:24.155Z,14.13
2022-12-08T07:15:11.911Z,12.88
2022-12-08T07:18:00.330Z,14.70
2022-12-08T07:20:49.023Z,12.10
2022-12-08T07:23:36.727Z,9.70
2022-12-08T07:26:23.883Z,11.00
2022-12-08T07:29:11.368Z,10.48
2022-12-08T07:31:58.455Z,12.15
2022-12-08T07:34:47.252Z,12.02
2022-12-08T07:37:36.254Z,11.98
2022-12-08T07:40:23.343Z,13.00
2022-12-08T07:43:10.652Z,11.75
2022-12-08T07:45:58.250Z,12.55
2022-12-08T07:48:46.274Z,11.02
2022-12-08T07:51:33.197Z,11.57
2022-12-08T07:54:21.968Z,9.57
2022-12-08T07:57:09.700Z,10.38
2022-12-08T07:59:58.191Z,13.00
2022-12-08T08:02:45.174Z,9.10
2022-12-08T08:05:32.344Z,10.95
2022-12-08T08:08:19.615Z,10.40
2022-12-08T08:11:18.974Z,12.68
2022-12-08T08:14:08.474Z,11.73
2022-12-08T08:16:56.245Z,15.70
2022-12-08T08:19:43.698Z,13.75
2022-12-08T08:22:30.957Z,10.05
2022-12-08T08:25:19.011Z,10.25
2022-12-08T08:28:07.633Z,9.85
2022-12-08T08:30:54.716Z,10.90
2022-12-08T08:33:41.823Z,10.35
2022-12-08T08:36:29.195Z,10.90
2022-12-08T08:39:16.790Z,11.05
2022-12-08T08:42:03.815Z,10.93
2022-12-08T08:44:52.490Z,11.50
2022-12-08T08:47:39.850Z,11.35
2022-12-08T08:50:28.669Z,10.27
2022-12-08T08:53:17.669Z,8.95
2022-12-08T08:56:06.348Z,10.95
2022-12-08T08:58:54.260Z,8.52
2022-12-08T09:01:43.343Z,10.18
2022-12-08T09:04:30.808Z,8.30
2022-12-08T09:07:17.949Z,9.00
2022-12-08T09:10:06.164Z,7.65
2022-12-08T09:12:53.634Z,9.13
2022-12-08T09:15:40.907Z,9.45
2022-12-08T09:18:29.332Z,7.82
2022-12-08T09:21:20.402Z,8.00
2022-12-08T09:24:08.403Z,7.85
2022-12-08T09:26:55.432Z,8.20
2022-12-08T09:29:42.694Z,8.18
2022-12-08T09:32:30.057Z,8.30
2022-12-08T09:35:18.728Z,8.07
2022-12-08T09:38:05.907Z,9.55
2022-12-08T09:40:53.847Z,8.65
2022-12-08T09:43:46.302Z,8.52
2022-12-08T09:46:35.594Z,10.80
2022-12-08T09:49:24.611Z,10.05
2022-12-08T09:52:17.102Z,10.30
2022-12-08T09:55:06.376Z,9.88
2022-12-08T09:57:59.122Z,9.35
2022-12-08T10:00:46.354Z,11.57
2022-12-08T10:03:33.495Z,10.93
2022-12-08T10:06:22.702Z,11.13
2022-12-08T10:09:23.015Z,10.18
2022-12-08T10:12:13.719Z,9.82
2022-12-08T10:15:04.796Z,10.02
2022-12-08T10:17:52.958Z,10.02
2022-12-08T10:20:42.118Z,10.52
2022-12-08T10:23:33.117Z,10.30
2022-12-08T10:26:22.680Z,10.25
2022-12-08T10:29:11.420Z,12.20
2022-12-08T10:32:00.028Z,11.15
2022-12-08T10:35:01.386Z,12.23
2022-12-08T10:37:56.285Z,11.73
2022-12-08T10:40:45.860Z,10.68
2022-12-08T10:43:35.383Z,13.02
2022-12-08T10:46:25.860Z,10.00
2022-12-08T10:49:13.534Z,11.52
2022-12-08T10:52:00.835Z,12.52
2022-12-08T10:54:52.929Z,11.27
2022-12-08T10:57:40.171Z,11.70
2022-12-08T11:00:29.566Z,12.45
2022-12-08T11:03:23.526Z,11.77
2022-12-08T11:06:13.102Z,11.90
2022-12-08T11:09:01.531Z,11.55
2022-12-08T11:11:50.272Z,11.43
2022-12-08T11:14:46.297Z,11.85
2022-12-08T11:17:39.727Z,10.32
2022-12-08T11:20:26.796Z,11.27
2022-12-08T11:23:21.396Z,11.30
2022-12-08T11:26:13.076Z,11.30
2022-12-08T11:29:00.176Z,11.20
2022-12-08T11:31:50.712Z,11.95
2022-12-08T11:34:41.953Z,11.25
2022-12-08T11:37:34.615Z,11.27
2022-12-08T11:40:24.422Z,10.40
2022-12-08T11:43:17.685Z,10.85
2022-12-08T11:46:05.973Z,11.82
2022-12-08T11:48:55.134Z,12.65
2022-12-08T11:51:47.644Z,9.50
2022-12-08T11:54:36.488Z,11.07
2022-12-08T11:57:25.478Z,10.82
2022-12-08T12:00:14.348Z,11.45
2022-12-08T12:03:04.966Z,12.27
2022-12-08T12:09:13.051Z,12.18
2022-12-08T12:12:16.684Z,11.88
2022-12-08T12:15:17.500Z,10.73
2022-12-08T12:18:08.067Z,11.40
2022-12-08T12:20:59.428Z,10.75
2022-12-08T12:23:49.935Z,10.02
2022-12-08T12:26:41.627Z,13.07
2022-12-08T12:29:30.253Z,11.52
2022-12-08T12:32:17.172Z,12.85
2022-12-08T12:35:05.733Z,12.35
2022-12-08T12:37:56.971Z,11.50
2022-12-08T12:40:44.583Z,11.05
2022-12-08T12:43:34.244Z,10.02
2022-12-08T12:46:42.338Z,11.75
2022-12-08T12:49:48.793Z,12.27
2022-12-08T12:52:46.007Z,10.65
2022-12-08T12:55:51.716Z,9.98
2022-12-08T12:58:42.690Z,8.15
2022-12-08T13:01:49.374Z,10.82
2022-12-08T13:04:38.191Z,9.25
2022-12-08T13:07:26.754Z,9.00
2022-12-08T13:10:19.295Z,11.18
2022-12-08T13:13:17.975Z,11.07
2022-12-08T13:16:19.074Z,12.70
2022-12-08T13:19:13.437Z,10.70
2022-12-08T13:22:01.227Z,12.43
2022-12-08T13:24:48.285Z,15.10
2022-12-08T13:27:36.311Z,11.98
2022-12-08T13:30:42.527Z,9.63
2022-12-08T13:33:33.162Z,11.02
2022-12-08T13:36:23.561Z,9.95
2022-12-08T13:39:17.019Z,10.18
2022-12-08T13:42:07.035Z,11.43
2022-12-08T13:45:22.268Z,11.57
2022-12-08T13:48:26.650Z,9.73
2022-12-08T13:55:12.987Z,12.75
2022-12-08T13:57:36.028Z,13.70
2022-12-08T14:00:23.994Z,11.45
2022-12-08T14:03:12.931Z,11.43
2022-12-08T14:06:12.311Z,11.63
2022-12-08T14:09:10.227Z,10.27
2022-12-08T14:11:59.593Z,11.55
2022-12-08T14:15:04.886Z,11.73
2022-12-08T14:17:52.571Z,11.05
2022-12-08T14:21:12.210Z,12.00
2022-12-08T14:23:46.799Z,11.05
2022-12-08T14:26:36.506Z,8.52
2022-12-08T14:29:32.545Z,9.75
2022-12-08T14:32:24.424Z,10.13
2022-12-08T14:35:14.676Z,10.35
2022-12-08T14:38:02.883Z,10.63
2022-12-08T14:40:50.938Z,10.98
2022-12-08T14:43:41.018Z,9.55
2022-12-08T14:46:28.220Z,10.52
2022-12-08T14:49:30.044Z,11.52
2022-12-08T14:52:17.260Z,10.80
2022-12-08T14:55:08.155Z,10.38
2022-12-08T14:57:55.433Z,10.30
2022-12-08T15:00:47.451Z,10.15
2022-12-08T15:03:34.634Z,10.77
2022-12-08T15:06:23.481Z,10.93
2022-12-08T15:09:16.571Z,9.27
2022-12-08T15:12:04.921Z,10.30
2022-12-08T15:14:56.747Z,10.27
2022-12-08T15:17:46.415Z,9.57
2022-12-08T15:20:39.921Z,9.68
2022-12-08T15:23:28.082Z,9.13
2022-12-08T15:26:19.771Z,9.05
2022-12-08T15:29:11.796Z,9.50
2022-12-08T15:31:59.794Z,9.55
2022-12-08T15:34:48.760Z,10.57
2022-12-08T15:37:35.879Z,9.48
2022-12-08T15:40:26.024Z,9.32
2022-12-08T15:43:13.054Z,9.55
2022-12-08T15:46:00.663Z,9.52
2022-12-08T15:48:47.921Z,10.80
2022-12-08T15:51:36.844Z,9.25
2022-12-08T15:54:23.779Z,10.98
2022-12-08T15:57:22.069Z,11.80
2022-12-08T16:00:51.860Z,10.15
2022-12-08T16:04:19.780Z,10.95
2022-12-08T16:07:19.668Z,10.43
2022-12-08T16:09:50.885Z,9.85
2022-12-08T16:16:03.093Z,11.18
2022-12-08T16:18:51.039Z,10.48
2022-12-08T16:22:17.700Z,10.98
2022-12-08T16:24:47.021Z,10.10
2022-12-08T16:28:00.285Z,11.23
2022-12-08T16:30:44.035Z,10.75
2022-12-08T16:33:31.184Z,10.63
2022-12-08T16:36:18.355Z,10.15
2022-12-08T16:39:05.754Z,10.95
2022-12-08T16:42:11.551Z,11.05
2022-12-08T16:44:58.631Z,10.95
2022-12-08T16:47:47.203Z,10.75
2022-12-08T16:50:35.339Z,10.02
2022-12-08T16:53:23.867Z,9.07
2022-12-08T16:56:15.433Z,10.02
2022-12-08T16:59:04.117Z,10.35
2022-12-08T17:01:51.368Z,9.52
2022-12-08T17:04:38.718Z,10.30
2022-12-08T17:07:25.862Z,11.05
2022-12-08T17:10:14.255Z,9.93
2022-12-08T17:13:02.691Z,9.88
2022-12-08T17:15:51.120Z,9.32
2022-12-08T17:18:38.518Z,11.15
2022-12-08T17:21:25.871Z,10.43
2022-12-08T17:24:17.144Z,9.85
2022-12-08T17:27:07.486Z,10.07
2022-12-08T17:29:54.783Z,9.98
2022-12-08T17:32:43.867Z,10.63
2022-12-08T17:35:31.305Z,10.00
2022-12-08T17:38:19.044Z,11.13
2022-12-08T17:41:06.863Z,10.55
2022-12-08T17:43:53.955Z,10.45
2022-12-08T17:46:44.284Z,10.32
2022-12-08T17:49:35.561Z,10.50
2022-12-08T17:52:22.592Z,11.50
2022-12-08T17:55:10.934Z,10.90
2022-12-08T17:57:57.928Z,9.90
2022-12-08T18:00:45.239Z,8.93
2022-12-08T18:03:32.591Z,9.88
2022-12-08T18:06:21.364Z,8.98
2022-12-08T18:09:08.884Z,9.80
2022-12-08T18:11:56.087Z,9.43
2022-12-08T18:14:46.058Z,8.95
2022-12-08T18:17:33.259Z,8.70
2022-12-08T18:20:20.686Z,9.13
2022-12-08T18:23:09.366Z,8.38
2022-12-08T18:25:56.523Z,8.60
2022-12-08T18:28:44.050Z,9.52
2022-12-08T18:31:31.281Z,9.65
2022-12-08T18:34:19.229Z,9.63
2022-12-08T18:37:07.435Z,8.55
2022-12-08T18:39:56.310Z,9.50
2022-12-08T18:42:43.555Z,9.30
2022-12-08T18:45:30.767Z,9.02
2022-12-08T18:48:18.036Z,10.55
2022-12-08T18:51:05.919Z,10.40
2022-12-08T18:53:53.218Z,9.60
2022-12-08T18:56:41.834Z,9.70
2022-12-08T18:59:29.076Z,10.57
2022-12-08T19:02:16.716Z,9.48
2022-12-08T19:05:03.671Z,10.25
2022-12-08T19:07:52.203Z,10.60
2022-12-08T19:10:39.724Z,10.15
2022-12-08T19:13:28.461Z,10.50
2022-12-08T19:16:15.907Z,10.65
2022-12-08T19:19:03.076Z,10.90
2022-12-08T19:21:50.448Z,10.57
2022-12-08T19:24:37.870Z,9.20
2022-12-08T19:27:25.018Z,11.10
2022-12-08T19:30:14.298Z,11.40
2022-12-08T19:33:01.492Z,10.93
2022-12-08T19:35:52.664Z,11.00
2022-12-08T19:38:53.828Z,10.57
2022-12-08T19:41:58.608Z,11.43
2022-12-08T19:44:54.924Z,10.80
2022-12-08T19:47:43.695Z,10.38
2022-12-08T19:50:40.561Z,11.80
2022-12-08T19:53:27.876Z,11.50
2022-12-08T19:56:15.332Z,11.48
2022-12-08T19:59:02.709Z,12.55
2022-12-08T20:01:51.395Z,12.93
2022-12-08T20:04:39.892Z,12.02
2022-12-08T20:07:27.338Z,12.43
2022-12-08T20:10:16.879Z,11.57
2022-12-08T20:13:21.817Z,13.55
2022-12-08T20:16:09.927Z,12.20
2022-12-08T20:18:57.266Z,13.32
2022-12-08T20:21:45.910Z,13.02
2022-12-08T20:24:33.217Z,11.90
2022-12-08T20:27:20.422Z,12.38
2022-12-08T20:30:13.302Z,12.77
2022-12-08T20:33:03.703Z,13.00
2022-12-08T20:35:59.239Z,14.45
2022-12-08T20:38:47.927Z,13.35
2022-12-08T20:41:38.960Z,13.55
2022-12-08T20:44:26.880Z,14.45
2022-12-08T20:47:14.230Z,13.80
2022-12-08T20:50:01.618Z,15.30
2022-12-08T20:52:48.525Z,13.95
2022-12-08T20:55:37.408Z,13.18
2022-12-08T20:58:24.772Z,13.60
2022-12-08T21:01:12.391Z,14.52
2022-12-08T21:03:59.743Z,14.15
2022-12-08T21:06:47.494Z,14.57
2022-12-08T21:09:34.874Z,14.15
2022-12-08T21:12:23.416Z,13.35
2022-12-08T21:15:12.331Z,13.98
2022-12-08T21:17:59.465Z,14.88
2022-12-08T21:20:47.888Z,14.35
2022-12-08T21:23:35.372Z,14.63
2022-12-08T21:26:23.378Z,14.45
2022-12-08T21:29:12.853Z,14.55
2022-12-08T21:32:00.331Z,14.00
2022-12-08T21:34:47.768Z,12.77
2022-12-08T21:37:34.796Z,14.02
2022-12-08T21:40:21.994Z,13.85
2022-12-08T21:43:09.365Z,13.25
2022-12-08T21:45:57.979Z,15.52
2022-12-08T21:48:45.387Z,14.38
2022-12-08T21:51:33.823Z,15.50
2022-12-08T21:54:21.475Z,15.38
2022-12-08T21:57:08.675Z,15.65
2022-12-08T21:59:55.651Z,14.70
2022-12-08T22:02:44.565Z,14.68
2022-12-08T22:05:31.618Z,14.30
2022-12-08T22:08:19.075Z,13.98
2022-12-08T22:11:06.493Z,15.45
2022-12-08T22:13:53.590Z,14.70
2022-12-08T22:16:40.936Z,14.18
2022-12-08T22:19:31.268Z,15.68
2022-12-08T22:22:18.803Z,15.23
2022-12-08T22:25:06.958Z,15.13
2022-12-08T22:27:54.417Z,16.38
2022-12-08T22:30:41.349Z,15.60
2022-12-08T22:33:29.759Z,17.40
2022-12-08T22:36:19.277Z,15.25
2022-12-08T22:39:06.638Z,15.60
2022-12-08T22:41:53.688Z,17.45
2022-12-08T22:44:41.104Z,15.38
2022-12-08T22:47:28.464Z,18.05
2022-12-08T22:50:15.680Z,15.70
2022-12-08T22:53:04.879Z,17.70
2022-12-08T22:55:52.317Z,15.88
2022-12-08T22:58:39.589Z,15.90
2022-12-08T23:01:27.813Z,16.15
2022-12-08T23:04:17.924Z,16.85
2022-12-08T23:07:06.023Z,16.27
2022-12-08T23:09:54.647Z,17.48
2022-12-08T23:12:42.035Z,17.73
2022-12-08T23:15:29.288Z,17.63
2022-12-08T23:18:19.135Z,17.27
2022-12-08T23:21:06.878Z,17.48
2022-12-08T23:23:54.264Z,17.05
2022-12-08T23:26:44.363Z,17.15
2022-12-08T23:29:31.639Z,17.30
2022-12-08T23:32:18.945Z,16.67
2022-12-08T23:35:07.545Z,17.90
2022-12-08T23:37:54.680Z,16.80
2022-12-08T23:40:41.911Z,17.10
2022-12-08T23:43:30.778Z,16.52
2022-12-08T23:46:19.011Z,17.15
2022-12-08T23:49:06.262Z,18.00
2022-12-08T23:51:53.802Z,16.63
2022-12-08T23:54:41.468Z,16.45
2022-12-08T23:57:29.116Z,15.30
